Time;durP1;ratioP1;P1;durP2;ratioP2;P2;SDS_P1;SDS_P2;PMS_P1;PMS_P2;Temp;Humidity;BMP_temperature;BMP_pressure;BME280_temperature;BME280_humidity;BME280_pressure;Samples;Min_cycle;Max_cycle;Signal;HPM_P1;HPM_P2
2023/07/07 00:00:53;;;;;;;2.78;1.85;;;13.60;99.90;;;;;;4967541;28;20434;-76
2023/07/07 00:03:19;;;;;;;4.45;2.63;;;13.60;99.90;;;;;;4983436;28;20019;-77
2023/07/07 00:05:47;;;;;;;5.28;2.40;;;13.50;99.90;;;;;;4984274;28;20298;-76
2023/07/07 00:08:13;;;;;;;4.97;3.03;;;13.50;99.90;;;;;;4965809;28;20089;-77
2023/07/07 00:10:44;;;;;;;3.75;2.08;;;13.50;99.90;;;;;;4968215;28;20023;-77
2023/07/07 00:13:14;;;;;;;3.83;2.33;;;13.50;99.90;;;;;;4987636;28;20027;-77
2023/07/07 00:15:44;;;;;;;4.47;2.53;;;13.40;99.90;;;;;;4984760;28;20046;-76
2023/07/07 00:18:10;;;;;;;;;;;13.40;99.90;;;;;;4972037;28;20478;-76
2023/07/07 00:20:36;;;;;;;5.20;2.75;;;13.40;99.90;;;;;;4991490;28;19913;-77
2023/07/07 00:23:02;;;;;;;13.60;3.40;;;13.40;99.90;;;;;;4986318;28;20357;-77
2023/07/07 00:25:28;;;;;;;3.15;2.20;;;13.40;99.90;;;;;;4985138;28;20042;-76
2023/07/07 00:27:55;;;;;;;2.92;2.30;;;13.30;99.90;;;;;;4969582;28;20042;-77
2023/07/07 00:30:20;;;;;;;2.47;2.28;;;13.20;99.90;;;;;;4970443;29;20111;-77
2023/07/07 00:32:46;;;;;;;20.38;2.67;;;13.20;99.90;;;;;;4970617;28;20312;-77
2023/07/07 00:35:12;;;;;;;6.50;2.83;;;13.20;99.90;;;;;;4973293;28;20034;-76
2023/07/07 00:37:37;;;;;;;5.75;3.05;;;13.10;99.90;;;;;;4952130;29;20261;-77
2023/07/07 00:40:03;;;;;;;5.47;3.13;;;13.00;99.90;;;;;;4967409;28;20083;-77
2023/07/07 00:42:30;;;;;;;2.75;2.05;;;13.00;99.90;;;;;;4952393;29;20011;-77
2023/07/07 00:45:09;;;;;;;3.70;2.03;;;13.00;99.90;;;;;;4954360;29;20055;-77
2023/07/07 00:47:40;;;;;;;2.60;2.08;;;13.00;99.90;;;;;;4952394;29;20047;-76
2023/07/07 00:50:08;;;;;;;4.13;2.78;;;12.90;99.90;;;;;;4966077;29;20031;-77
2023/07/07 00:52:36;;;;;;;6.95;2.47;;;12.80;99.90;;;;;;4968327;29;20019;-77
2023/07/07 00:55:02;;;;;;;3.80;2.22;;;12.80;99.90;;;;;;4966703;28;20041;-77
2023/07/07 00:57:28;;;;;;;3.17;1.98;;;12.70;99.90;;;;;;4970235;28;20329;-77
2023/07/07 00:59:54;;;;;;;3.03;2.00;;;12.80;99.90;;;;;;4975206;28;20087;-77
2023/07/07 01:02:26;;;;;;;4.35;2.70;;;12.80;99.90;;;;;;4973366;29;20039;-77
2023/07/07 01:04:55;;;;;;;7.03;2.53;;;12.90;99.90;;;;;;4982394;28;20054;-77
2023/07/07 01:07:29;;;;;;;3.60;2.75;;;12.90;99.90;;;;;;4969249;28;20038;-77
2023/07/07 01:09:55;;;;;;;2.58;1.80;;;12.90;99.90;;;;;;4969085;28;20051;-77
2023/07/07 01:12:21;;;;;;;8.30;2.17;;;12.80;99.90;;;;;;4968846;28;20369;-77
2023/07/07 01:14:49;;;;;;;4.88;2.20;;;12.80;99.90;;;;;;4975475;28;20027;-77
2023/07/07 01:17:28;;;;;;;3.08;2.20;;;12.70;99.90;;;;;;4970487;29;20031;-77
2023/07/07 01:20:12;;;;;;;;;;;12.60;99.90;;;;;;4970076;28;20038;-78
2023/07/07 01:23:10;;;;;;;4.13;2.67;;;12.60;99.90;;;;;;4966739;29;20113;-76
2023/07/07 01:26:03;;;;;;;4.35;2.15;;;12.60;99.90;;;;;;4948414;29;20349;-77
2023/07/07 01:28:38;;;;;;;5.88;2.97;;;12.60;99.90;;;;;;4964409;29;20034;-76
2023/07/07 01:31:17;;;;;;;4.32;3.17;;;12.50;99.90;;;;;;4966682;29;20243;-76
2023/07/07 01:33:46;;;;;;;4.15;2.30;;;12.40;99.90;;;;;;4950127;29;20039;-76
2023/07/07 01:36:11;;;;;;;3.22;2.00;;;12.50;99.90;;;;;;4952483;28;20038;-77
2023/07/07 01:38:45;;;;;;;4.03;2.50;;;12.50;99.90;;;;;;4970507;29;20039;-77
2023/07/07 01:41:20;;;;;;;3.20;2.22;;;12.50;99.90;;;;;;4975921;28;20039;-77
2023/07/07 01:44:04;;;;;;;8.00;2.58;;;12.50;99.90;;;;;;4976079;28;20034;-76
2023/07/07 01:46:52;;;;;;;3.17;2.88;;;12.50;99.90;;;;;;4971734;28;20026;-78
2023/07/07 01:49:24;;;;;;;5.75;2.42;;;12.40;99.90;;;;;;4988199;28;20049;-77
2023/07/07 01:51:52;;;;;;;5.32;2.95;;;12.20;99.90;;;;;;4989352;28;20050;-77
2023/07/07 01:54:19;;;;;;;3.63;2.72;;;12.20;99.90;;;;;;4972109;28;20057;-76
2023/07/07 01:56:46;;;;;;;6.03;2.60;;;12.10;99.90;;;;;;4985415;28;20027;-76
2023/07/07 01:59:13;;;;;;;3.25;2.83;;;12.10;99.90;;;;;;4968648;28;20057;-76
2023/07/07 02:01:39;;;;;;;4.85;2.63;;;12.10;99.90;;;;;;4969033;28;20019;-76
2023/07/07 02:04:09;;;;;;;5.40;2.95;;;12.00;99.90;;;;;;4972313;28;20039;-76
2023/07/07 02:06:37;;;;;;;4.28;2.78;;;12.10;99.90;;;;;;4991717;28;20019;-76
2023/07/07 02:09:03;;;;;;;4.60;2.50;;;12.10;99.90;;;;;;4976610;28;20027;-78
2023/07/07 02:11:29;;;;;;;2.92;2.60;;;12.20;99.90;;;;;;4974303;28;20054;-76
2023/07/07 02:13:56;;;;;;;4.85;2.95;;;12.20;99.90;;;;;;4987592;28;20051;-76
2023/07/07 02:16:22;;;;;;;3.00;2.08;;;12.30;99.90;;;;;;4971820;28;20033;-76
2023/07/07 02:18:51;;;;;;;3.95;2.55;;;12.30;99.90;;;;;;4968445;29;20066;-77
2023/07/07 02:21:18;;;;;;;8.35;3.10;;;12.30;99.90;;;;;;4950498;28;20027;-76
2023/07/07 02:23:44;;;;;;;5.13;2.28;;;12.30;99.90;;;;;;4968992;28;20081;-76
2023/07/07 02:26:13;;;;;;;4.38;2.58;;;12.20;99.90;;;;;;4984195;28;20065;-76
2023/07/07 02:28:39;;;;;;;3.17;2.63;;;12.10;99.90;;;;;;4964720;29;20023;-76
2023/07/07 02:31:05;;;;;;;5.05;2.60;;;12.10;99.90;;;;;;4970955;29;20023;-77
2023/07/07 02:33:31;;;;;;;4.18;3.13;;;12.10;99.90;;;;;;4968397;29;20083;-76
2023/07/07 02:36:02;;;;;;;6.97;2.70;;;12.00;99.90;;;;;;4959748;29;20067;-77
2023/07/07 02:38:29;;;;;;;5.45;3.03;;;12.00;99.90;;;;;;4984327;28;20094;-77
2023/07/07 02:40:55;;;;;;;5.00;2.78;;;11.90;99.90;;;;;;4987612;28;20053;-76
2023/07/07 02:43:20;;;;;;;5.35;3.30;;;11.80;99.90;;;;;;4985981;28;20037;-76
2023/07/07 02:45:46;;;;;;;2.92;2.10;;;11.80;99.90;;;;;;4969709;28;20023;-77
2023/07/07 02:48:13;;;;;;;9.70;2.80;;;11.70;99.90;;;;;;4968757;29;20062;-76
2023/07/07 02:50:39;;;;;;;6.32;2.65;;;11.70;99.90;;;;;;4970915;29;20024;-76
2023/07/07 02:53:04;;;;;;;5.80;2.92;;;11.70;99.90;;;;;;4957583;29;20318;-76
2023/07/07 02:55:30;;;;;;;4.38;3.00;;;11.70;99.90;;;;;;4949178;29;20661;-77
2023/07/07 02:57:57;;;;;;;3.88;2.92;;;11.60;99.90;;;;;;4949701;29;20330;-77
2023/07/07 03:00:24;;;;;;;5.68;2.78;;;11.60;99.90;;;;;;4955022;29;20058;-77
2023/07/07 03:02:50;;;;;;;5.55;3.53;;;11.50;99.90;;;;;;4972238;28;20011;-76
2023/07/07 03:05:16;;;;;;;3.78;2.70;;;11.50;99.90;;;;;;4951222;29;20030;-77
2023/07/07 03:07:41;;;;;;;7.47;3.65;;;11.60;99.90;;;;;;4964609;28;20274;-77
2023/07/07 03:10:09;;;;;;;6.65;3.70;;;11.60;99.90;;;;;;4946050;29;20317;-77
2023/07/07 03:12:34;;;;;;;5.05;2.92;;;11.70;99.90;;;;;;4953776;28;20034;-77
2023/07/07 03:15:00;;;;;;;7.18;3.42;;;11.60;99.90;;;;;;4967015;28;20058;-76
2023/07/07 03:17:30;;;;;;;10.23;2.90;;;11.70;99.90;;;;;;4984164;28;20019;-77
2023/07/07 03:19:56;;;;;;;2.92;2.50;;;11.70;99.90;;;;;;4965473;28;20479;-76
2023/07/07 03:22:21;;;;;;;8.13;2.42;;;11.70;99.90;;;;;;4977766;28;20034;-77
2023/07/07 03:24:50;;;;;;;3.92;2.65;;;11.70;99.90;;;;;;4945654;29;20219;-76
2023/07/07 03:27:16;;;;;;;5.90;3.72;;;11.70;99.90;;;;;;4944715;29;20315;-76
2023/07/07 03:29:42;;;;;;;4.72;3.13;;;11.70;99.90;;;;;;4945152;29;20056;-77
2023/07/07 03:32:08;;;;;;;4.18;2.50;;;11.60;99.90;;;;;;4951619;28;20051;-77
2023/07/07 03:34:36;;;;;;;7.30;3.53;;;11.60;99.90;;;;;;4969147;28;20031;-77
2023/07/07 03:37:02;;;;;;;3.17;2.72;;;11.50;99.90;;;;;;4984286;28;20023;-77
2023/07/07 03:39:28;;;;;;;10.02;3.20;;;11.30;99.90;;;;;;4981874;28;20042;-77
2023/07/07 03:41:53;;;;;;;7.65;3.05;;;11.40;99.90;;;;;;4961086;28;20094;-77
2023/07/07 03:44:19;;;;;;;6.97;2.83;;;11.30;99.90;;;;;;4963217;29;20035;-76
2023/07/07 03:46:45;;;;;;;6.60;2.97;;;11.30;99.90;;;;;;4962990;29;20031;-78
2023/07/07 03:49:10;;;;;;;6.30;3.22;;;11.30;99.90;;;;;;4944896;29;20047;-77
2023/07/07 03:51:37;;;;;;;5.22;3.55;;;11.40;99.90;;;;;;4947947;28;20389;-77
2023/07/07 03:54:04;;;;;;;5.07;3.80;;;11.40;99.90;;;;;;4977329;28;20041;-77
2023/07/07 03:56:30;;;;;;;13.55;4.32;;;11.40;99.90;;;;;;4965423;28;20027;-77
2023/07/07 03:58:56;;;;;;;9.20;3.78;;;11.50;99.90;;;;;;4970146;28;20065;-77
2023/07/07 04:01:21;;;;;;;11.25;4.05;;;11.60;99.90;;;;;;4974515;28;20029;-77
2023/07/07 04:03:47;;;;;;;4.47;2.58;;;11.70;99.90;;;;;;4970696;28;20051;-77
2023/07/07 04:06:17;;;;;;;7.05;3.35;;;11.80;99.90;;;;;;4975699;28;20030;-77
2023/07/07 04:08:59;;;;;;;7.15;2.63;;;11.80;99.90;;;;;;4974534;28;20174;-77
2023/07/07 04:11:25;;;;;;;3.75;3.10;;;11.90;99.90;;;;;;4975669;28;20018;-77
2023/07/07 04:13:51;;;;;;;6.80;3.13;;;11.90;99.90;;;;;;4974784;28;20065;-78
2023/07/07 04:16:27;;;;;;;5.60;2.65;;;12.10;99.90;;;;;;4975279;28;20022;-78
2023/07/07 04:18:54;;;;;;;5.80;3.35;;;12.20;99.90;;;;;;4990754;28;20055;-78
2023/07/07 04:21:26;;;;;;;3.25;2.53;;;12.40;99.90;;;;;;4989082;28;20369;-77
2023/07/07 04:23:53;;;;;;;4.95;3.38;;;12.30;99.90;;;;;;4969077;28;20031;-77
2023/07/07 04:26:20;;;;;;;4.93;2.75;;;12.50;99.90;;;;;;4974512;28;20037;-77
2023/07/07 04:28:46;;;;;;;6.32;2.75;;;12.50;99.90;;;;;;4973292;28;20110;-78
2023/07/07 04:31:13;;;;;;;11.48;3.63;;;12.70;99.90;;;;;;4991047;28;20011;-80
2023/07/07 04:33:40;;;;;;;5.15;3.03;;;12.70;99.90;;;;;;4973252;28;20031;-78
2023/07/07 04:36:13;;;;;;;3.65;2.65;;;12.80;99.90;;;;;;4990538;28;20098;-76
2023/07/07 04:38:39;;;;;;;4.90;2.40;;;12.90;99.90;;;;;;4973202;28;20046;-77
2023/07/07 04:41:20;;;;;;;4.53;3.28;;;13.10;99.90;;;;;;4991514;28;20022;-77
2023/07/07 04:43:53;;;;;;;3.10;2.72;;;13.30;99.90;;;;;;4982246;28;20098;-76
2023/07/07 04:46:28;;;;;;;4.65;2.90;;;13.40;99.90;;;;;;4974175;28;20254;-77
2023/07/07 04:48:54;;;;;;;2.60;2.40;;;13.60;99.90;;;;;;4956597;29;20102;-78
2023/07/07 04:51:20;;;;;;;2.75;2.47;;;13.90;99.90;;;;;;4965430;29;20023;-82
2023/07/07 04:53:46;;;;;;;3.30;2.75;;;14.20;99.90;;;;;;4966374;28;20070;-83
2023/07/07 04:56:15;;;;;;;3.10;2.40;;;14.30;99.90;;;;;;4946266;29;20035;-83
2023/07/07 04:58:42;;;;;;;4.10;2.55;;;14.30;99.90;;;;;;4945086;29;20121;-78
2023/07/07 05:01:12;;;;;;;4.00;3.10;;;14.50;99.90;;;;;;4963314;29;20444;-81
2023/07/07 05:03:40;;;;;;;4.30;2.25;;;14.70;99.90;;;;;;4945353;29;20042;-82
2023/07/07 05:06:06;;;;;;;3.83;2.17;;;14.90;99.90;;;;;;4945968;29;20031;-80
2023/07/07 05:08:33;;;;;;;6.30;2.78;;;15.10;99.90;;;;;;4945814;29;20210;-82
2023/07/07 05:10:58;;;;;;;7.13;2.83;;;15.10;99.90;;;;;;4946346;29;20028;-79
2023/07/07 05:13:25;;;;;;;4.25;2.72;;;15.20;99.90;;;;;;4952447;28;20049;-80
2023/07/07 05:15:59;;;;;;;5.18;2.53;;;15.20;99.90;;;;;;4965242;28;20035;-79
2023/07/07 05:18:24;;;;;;;4.43;2.90;;;15.20;99.90;;;;;;4963707;28;20109;-79
2023/07/07 05:20:50;;;;;;;5.68;3.33;;;15.20;99.90;;;;;;4966249;28;20038;-77
2023/07/07 05:23:15;;;;;;;6.07;3.38;;;15.20;99.90;;;;;;4963923;28;20023;-77
2023/07/07 05:25:44;;;;;;;4.30;3.13;;;15.20;99.90;;;;;;4944819;29;20035;-78
2023/07/07 05:28:09;;;;;;;6.18;2.83;;;15.20;99.90;;;;;;4961289;28;20031;-78
2023/07/07 05:30:35;;;;;;;11.15;3.47;;;15.30;99.90;;;;;;4970005;28;20050;-77
2023/07/07 05:33:00;;;;;;;4.75;3.40;;;15.40;99.90;;;;;;4959566;29;20031;-78
2023/07/07 05:35:26;;;;;;;5.95;3.60;;;15.50;99.90;;;;;;4973260;28;20027;-78
2023/07/07 05:37:51;;;;;;;7.20;4.03;;;15.60;99.90;;;;;;4949024;28;20045;-77
2023/07/07 05:40:17;;;;;;;9.82;3.90;;;15.70;99.90;;;;;;4966088;28;20033;-78
2023/07/07 05:42:43;;;;;;;7.90;4.22;;;15.80;99.90;;;;;;4976077;28;20023;-77
2023/07/07 05:45:08;;;;;;;10.23;4.25;;;15.80;99.90;;;;;;4974230;28;20027;-79
2023/07/07 05:47:34;;;;;;;8.52;4.55;;;15.90;99.90;;;;;;4977587;28;20226;-76
2023/07/07 05:50:00;;;;;;;8.57;3.92;;;16.10;99.90;;;;;;4961679;28;20334;-78
2023/07/07 05:52:25;;;;;;;6.63;3.95;;;16.10;99.90;;;;;;4967778;28;20031;-78
2023/07/07 05:54:54;;;;;;;5.68;3.65;;;16.20;99.90;;;;;;4977756;28;20022;-78
2023/07/07 05:57:20;;;;;;;7.70;4.20;;;16.20;99.90;;;;;;4969185;28;20110;-78
2023/07/07 05:59:45;;;;;;;6.35;4.38;;;16.40;99.90;;;;;;4952028;28;20118;-78
2023/07/07 06:02:11;;;;;;;7.25;4.20;;;16.50;99.90;;;;;;4949886;29;20019;-77
2023/07/07 06:04:36;;;;;;;8.82;4.68;;;16.60;99.90;;;;;;4933029;29;20578;-77
2023/07/07 06:07:02;;;;;;;5.47;4.18;;;16.70;99.90;;;;;;4949213;29;20061;-77
2023/07/07 06:09:28;;;;;;;6.07;4.20;;;16.80;99.90;;;;;;4950892;28;20046;-77
2023/07/07 06:11:53;;;;;;;6.20;3.95;;;16.90;99.90;;;;;;4932958;29;20030;-77
2023/07/07 06:14:19;;;;;;;11.25;5.55;;;17.20;99.90;;;;;;4949415;28;20094;-77
2023/07/07 06:16:45;;;;;;;8.40;4.43;;;17.60;99.90;;;;;;4932167;29;20483;-77
2023/07/07 06:19:10;;;;;;;7.00;4.93;;;17.60;99.90;;;;;;4949655;28;20126;-77
2023/07/07 06:21:36;;;;;;;8.10;4.15;;;17.80;99.90;;;;;;4955951;29;20357;-77
2023/07/07 06:24:02;;;;;;;6.90;4.32;;;17.80;99.90;;;;;;4961013;28;20035;-77
2023/07/07 06:26:27;;;;;;;8.43;3.80;;;18.00;99.90;;;;;;4961159;29;20039;-76
2023/07/07 06:28:53;;;;;;;9.40;4.18;;;18.20;99.90;;;;;;4958296;28;20027;-76
2023/07/07 06:31:22;;;;;;;11.38;4.38;;;18.30;99.90;;;;;;4957917;29;20086;-76
2023/07/07 06:33:48;;;;;;;7.03;4.03;;;18.20;99.90;;;;;;4952693;28;20022;-76
2023/07/07 06:36:13;;;;;;;7.43;3.75;;;18.30;99.90;;;;;;4952298;29;20042;-77
2023/07/07 06:38:40;;;;;;;6.25;3.92;;;18.30;99.90;;;;;;4949711;28;20047;-76
2023/07/07 06:41:12;;;;;;;7.25;4.70;;;18.30;99.90;;;;;;4953450;29;20074;-77
2023/07/07 06:43:37;;;;;;;6.60;4.20;;;18.50;99.90;;;;;;4953387;28;20023;-77
2023/07/07 06:46:03;;;;;;;7.13;4.10;;;19.20;99.90;;;;;;4935289;29;20030;-77
2023/07/07 06:48:29;;;;;;;8.23;4.32;;;20.70;99.90;;;;;;4950763;28;20256;-76
2023/07/07 06:50:54;;;;;;;7.75;4.65;;;21.80;99.90;;;;;;4934403;29;20046;-76
2023/07/07 06:53:20;;;;;;;5.10;3.30;;;22.60;97.70;;;;;;4960248;28;20050;-75
2023/07/07 06:55:45;;;;;;;9.75;4.25;;;23.90;94.20;;;;;;4953713;29;20256;-76
2023/07/07 06:58:13;;;;;;;6.97;4.43;;;24.80;89.70;;;;;;4968081;28;20101;-76
2023/07/07 07:00:39;;;;;;;5.75;3.67;;;25.90;82.00;;;;;;4976512;28;20093;-76
2023/07/07 07:03:05;;;;;;;7.85;4.13;;;26.30;77.10;;;;;;4979340;28;20503;-77
2023/07/07 07:05:31;;;;;;;6.68;4.05;;;26.00;74.70;;;;;;4979395;28;20050;-76
2023/07/07 07:07:56;;;;;;;7.13;2.92;;;26.60;73.80;;;;;;4977623;28;20050;-75
2023/07/07 07:10:22;;;;;;;7.68;4.63;;;26.90;71.00;;;;;;4977101;28;20058;-77
2023/07/07 07:12:48;;;;;;;9.35;4.07;;;25.90;74.30;;;;;;4968990;28;20027;-77
2023/07/07 07:15:13;;;;;;;7.13;4.72;;;25.50;73.10;;;;;;4957572;29;20023;-76
2023/07/07 07:17:39;;;;;;;6.45;3.00;;;25.70;71.20;;;;;;4951247;29;20028;-77
2023/07/07 07:20:07;;;;;;;10.52;4.05;;;25.70;73.20;;;;;;4940499;29;20510;-76
2023/07/07 07:22:33;;;;;;;5.43;3.53;;;26.50;70.80;;;;;;4950152;29;20287;-77
2023/07/07 07:24:58;;;;;;;8.05;3.67;;;26.70;69.90;;;;;;4950885;28;20318;-76
2023/07/07 07:27:24;;;;;;;4.85;3.10;;;26.70;69.80;;;;;;4951097;29;20027;-77
2023/07/07 07:29:51;;;;;;;7.72;3.90;;;26.50;69.90;;;;;;4950248;29;20113;-76
2023/07/07 07:32:17;;;;;;;5.95;3.38;;;26.60;68.10;;;;;;4945849;28;20743;-77
2023/07/07 07:34:43;;;;;;;6.93;2.97;;;26.50;68.50;;;;;;4950295;29;20035;-77
2023/07/07 07:37:09;;;;;;;6.20;3.30;;;26.40;70.40;;;;;;4963077;29;20047;-77
2023/07/07 07:39:35;;;;;;;6.25;2.58;;;26.80;68.30;;;;;;4963412;28;20066;-77
2023/07/07 07:42:02;;;;;;;7.68;3.92;;;27.30;67.90;;;;;;4976414;28;20030;-77
2023/07/07 07:44:28;;;;;;;4.88;2.97;;;26.50;67.00;;;;;;4966685;28;20026;-76
2023/07/07 07:46:56;;;;;;;6.13;3.30;;;25.20;68.90;;;;;;4982141;28;20041;-78
2023/07/07 07:49:22;;;;;;;7.72;2.90;;;25.80;70.30;;;;;;4982218;28;20435;-77
2023/07/07 07:51:48;;;;;;;7.10;4.03;;;25.50;69.90;;;;;;4982918;28;20453;-77
2023/07/07 07:54:17;;;;;;;4.03;2.47;;;26.50;69.90;;;;;;4979940;28;20038;-78
2023/07/07 07:56:42;;;;;;;;;;;27.10;67.90;;;;;;4981053;28;20463;-77
2023/07/07 07:59:08;;;;;;;5.00;3.17;;;27.40;66.70;;;;;;4976235;28;19930;-77
2023/07/07 08:01:34;;;;;;;7.80;4.03;;;26.60;66.40;;;;;;4957646;28;20107;-77
2023/07/07 08:04:00;;;;;;;4.90;2.65;;;26.60;68.60;;;;;;4968247;28;20134;-77
2023/07/07 08:06:26;;;;;;;6.18;3.97;;;27.00;66.70;;;;;;4951338;28;20059;-78
2023/07/07 08:08:52;;;;;;;5.25;3.10;;;27.30;66.90;;;;;;4946766;28;20094;-77
2023/07/07 08:11:19;;;;;;;4.68;3.10;;;27.00;67.80;;;;;;4947294;29;20528;-77
2023/07/07 08:13:45;;;;;;;5.45;2.40;;;27.20;66.80;;;;;;4962774;28;20370;-77
2023/07/07 08:16:11;;;;;;;5.72;2.92;;;26.70;67.70;;;;;;4940974;29;20023;-77
2023/07/07 08:18:41;;;;;;;5.15;2.78;;;27.00;67.00;;;;;;4941529;29;20035;-77
2023/07/07 08:21:06;;;;;;;;;;;26.40;67.50;;;;;;4962989;28;20023;-77
2023/07/07 08:23:32;;;;;;;6.93;3.70;;;26.80;67.10;;;;;;4965559;28;19906;-77
2023/07/07 08:25:59;;;;;;;3.55;3.17;;;26.90;66.50;;;;;;4954813;28;20347;-76
2023/07/07 08:28:24;;;;;;;5.97;3.00;;;27.10;68.70;;;;;;4978804;28;20026;-77
2023/07/07 08:30:50;;;;;;;7.55;3.10;;;26.80;66.90;;;;;;4978821;28;20031;-78
2023/07/07 08:33:16;;;;;;;4.70;2.88;;;27.20;67.80;;;;;;4972728;28;20054;-77
2023/07/07 08:35:42;;;;;;;7.63;4.00;;;27.30;66.30;;;;;;4956409;28;20027;-78
2023/07/07 08:38:08;;;;;;;5.35;3.22;;;27.60;65.10;;;;;;4956211;28;20047;-77
2023/07/07 08:40:43;;;;;;;7.53;3.50;;;27.60;67.10;;;;;;4971252;28;20050;-77
2023/07/07 08:43:11;;;;;;;6.13;2.47;;;27.20;66.90;;;;;;4961598;28;20082;-77
2023/07/07 08:45:42;;;;;;;5.15;3.55;;;27.80;66.20;;;;;;4965568;28;20050;-77
2023/07/07 08:48:34;;;;;;;6.20;2.40;;;27.80;65.40;;;;;;4975383;28;20038;-77
2023/07/07 08:51:04;;;;;;;5.85;3.33;;;28.20;66.30;;;;;;4965306;28;20061;-78
2023/07/07 08:54:02;;;;;;;4.05;2.65;;;28.60;64.90;;;;;;4968450;28;20044;-78
2023/07/07 08:56:32;;;;;;;3.97;2.63;;;28.80;63.30;;;;;;4964042;28;20077;-78
2023/07/07 08:59:36;;;;;;;5.20;2.50;;;28.30;65.00;;;;;;4982229;28;20069;-78
2023/07/07 09:02:15;;;;;;;6.40;3.22;;;28.60;64.80;;;;;;4969957;28;20158;-77
2023/07/07 09:04:41;;;;;;;5.57;2.63;;;29.20;63.70;;;;;;4960072;28;20029;-77
2023/07/07 09:07:27;;;;;;;10.63;3.33;;;29.80;60.40;;;;;;4956668;28;20019;-77
2023/07/07 09:10:18;;;;;;;10.20;3.15;;;29.70;61.60;;;;;;4952786;28;20081;-78
2023/07/07 09:12:50;;;;;;;4.53;2.70;;;29.90;61.70;;;;;;4969322;28;20027;-78
2023/07/07 09:15:31;;;;;;;5.43;2.80;;;29.80;61.00;;;;;;4952047;28;20298;-77
2023/07/07 09:18:04;;;;;;;7.72;2.30;;;30.30;61.50;;;;;;4970010;28;20045;-78
2023/07/07 09:20:34;;;;;;;4.25;2.30;;;30.50;60.90;;;;;;4951837;28;20187;-78
2023/07/07 09:23:11;;;;;;;5.53;2.50;;;30.30;62.50;;;;;;4953543;28;20030;-78
2023/07/07 09:25:49;;;;;;;4.47;3.00;;;30.20;60.00;;;;;;4962209;28;20376;-77
2023/07/07 09:28:16;;;;;;;6.30;3.47;;;29.50;61.10;;;;;;4948867;28;20255;-78
2023/07/07 09:30:44;;;;;;;4.07;2.70;;;29.50;62.80;;;;;;4965380;28;20034;-77
2023/07/07 09:33:17;;;;;;;4.80;2.70;;;29.20;62.00;;;;;;4968417;28;20034;-78
2023/07/07 09:36:00;;;;;;;6.07;2.97;;;28.90;64.30;;;;;;4948845;28;20074;-77
2023/07/07 09:39:01;;;;;;;6.57;2.17;;;28.60;63.10;;;;;;4947549;29;20511;-77
2023/07/07 09:41:35;;;;;;;8.98;3.30;;;28.50;67.30;;;;;;4944273;29;20507;-77
2023/07/07 09:44:12;;;;;;;4.32;2.83;;;29.00;63.30;;;;;;4947819;29;20046;-77
2023/07/07 09:46:51;;;;;;;5.22;2.90;;;29.70;63.80;;;;;;4970755;28;20089;-77
2023/07/07 09:49:51;;;;;;;4.28;3.25;;;30.40;60.80;;;;;;4953305;28;20054;-77
2023/07/07 09:52:22;;;;;;;4.20;2.35;;;30.80;61.00;;;;;;4953520;28;20394;-76
2023/07/07 09:54:49;;;;;;;3.47;2.80;;;30.70;59.30;;;;;;4948692;28;20030;-76
2023/07/07 09:57:40;;;;;;;3.30;2.50;;;30.10;60.60;;;;;;4951364;29;20035;-77
2023/07/07 10:00:07;;;;;;;5.05;3.00;;;29.20;60.70;;;;;;4959052;28;20054;-77
2023/07/07 10:02:34;;;;;;;4.78;2.45;;;29.20;62.10;;;;;;4971221;28;20037;-77
2023/07/07 10:05:03;;;;;;;3.90;2.83;;;28.70;61.60;;;;;;4953926;28;20110;-77
2023/07/07 10:07:35;;;;;;;5.95;2.90;;;29.10;62.70;;;;;;4953556;28;20058;-76
2023/07/07 10:10:06;;;;;;;4.10;3.28;;;29.20;61.00;;;;;;4966457;28;20037;-77
2023/07/07 10:12:32;;;;;;;8.15;2.95;;;29.60;60.40;;;;;;4933822;29;20032;-78
2023/07/07 10:14:58;;;;;;;3.28;2.97;;;30.20;59.60;;;;;;4934406;29;20025;-77
2023/07/07 10:17:48;;;;;;;3.65;2.72;;;30.80;59.10;;;;;;4952722;28;20031;-77
2023/07/07 10:20:14;;;;;;;5.20;2.08;;;30.40;59.40;;;;;;4970514;28;20402;-77
2023/07/07 10:22:39;;;;;;;6.32;3.28;;;30.10;59.90;;;;;;4970721;28;20483;-77
2023/07/07 10:25:06;;;;;;;7.13;2.67;;;30.60;60.80;;;;;;4952771;28;20041;-77
2023/07/07 10:27:31;;;;;;;24.80;13.13;;;31.30;62.20;;;;;;4969649;28;20062;-77
2023/07/07 10:30:03;;;;;;;3.00;1.90;;;31.70;60.20;;;;;;4949697;29;20054;-77
2023/07/07 10:32:29;;;;;;;2.95;2.22;;;31.70;57.40;;;;;;4952804;28;20035;-77
2023/07/07 10:34:59;;;;;;;2.20;1.92;;;32.40;58.10;;;;;;4968058;28;20101;-77
2023/07/07 10:37:31;;;;;;;2.60;2.00;;;32.30;58.30;;;;;;4966524;28;20062;-77
2023/07/07 10:39:59;;;;;;;6.30;2.42;;;32.10;57.00;;;;;;4970562;28;20047;-77
2023/07/07 10:42:26;;;;;;;4.18;2.47;;;30.80;56.70;;;;;;4952660;28;20126;-77
2023/07/07 10:44:54;;;;;;;4.28;2.13;;;30.80;59.50;;;;;;4950807;28;20018;-77
2023/07/07 10:47:26;;;;;;;9.27;4.95;;;30.20;60.60;;;;;;4965129;28;20050;-78
2023/07/07 10:49:52;;;;;;;11.63;2.90;;;30.20;60.40;;;;;;4948446;28;20031;-77
2023/07/07 10:52:27;;;;;;;4.70;2.08;;;30.20;60.10;;;;;;4970390;28;20026;-78
2023/07/07 10:55:05;;;;;;;3.75;2.45;;;30.60;58.20;;;;;;4969017;28;20030;-77
2023/07/07 10:58:08;;;;;;;2.83;2.30;;;30.00;58.90;;;;;;4949570;29;20063;-78
2023/07/07 11:00:52;;;;;;;2.95;2.00;;;30.60;56.70;;;;;;4952469;28;20018;-78
2023/07/07 11:04:14;;;;;;;8.70;2.95;;;30.70;56.70;;;;;;4952756;28;20509;-77
2023/07/07 11:07:20;;;;;;;2.70;1.98;;;31.10;57.70;;;;;;4889500;29;20041;-77
2023/07/07 11:10:09;;;;;;;4.75;2.00;;;31.80;56.00;;;;;;4869061;29;20697;-77
2023/07/07 11:13:03;;;;;;;2.20;1.98;;;32.20;55.50;;;;;;4950250;29;20484;-77
2023/07/07 11:16:00;;;;;;;4.13;2.97;;;32.50;55.30;;;;;;4959518;28;20207;-78
2023/07/07 11:18:47;;;;;;;3.90;2.20;;;32.30;55.50;;;;;;4952722;28;20046;-78
2023/07/07 11:21:47;;;;;;;4.55;2.50;;;32.10;58.50;;;;;;4955991;28;20038;-78
2023/07/07 11:24:28;;;;;;;2.83;2.58;;;32.90;55.10;;;;;;4975325;28;20050;-78
2023/07/07 11:27:15;;;;;;;2.95;1.95;;;33.60;53.00;;;;;;4954109;28;20038;-77
2023/07/07 11:30:05;;;;;;;5.43;2.25;;;33.50;51.10;;;;;;4972345;28;20046;-77
2023/07/07 11:32:52;;;;;;;3.72;2.10;;;33.70;51.50;;;;;;4972036;28;20035;-78
2023/07/07 11:35:32;;;;;;;4.80;1.92;;;34.30;51.50;;;;;;4972160;28;20027;-78
2023/07/07 11:38:10;;;;;;;2.53;1.70;;;34.80;51.20;;;;;;4954378;28;20430;-78
2023/07/07 11:40:50;;;;;;;2.92;2.20;;;34.90;50.70;;;;;;4971438;28;20117;-77
2023/07/07 11:43:40;;;;;;;3.08;2.20;;;34.70;51.90;;;;;;4954134;28;20041;-77
2023/07/07 11:46:30;;;;;;;4.90;2.47;;;34.30;50.90;;;;;;4950547;29;20042;-77
2023/07/07 11:49:04;;;;;;;4.82;2.00;;;33.70;52.20;;;;;;4973430;28;20058;-77
2023/07/07 11:51:38;;;;;;;3.67;2.47;;;34.20;51.60;;;;;;4972509;28;20157;-78
2023/07/07 11:54:19;;;;;;;4.13;2.30;;;34.00;50.70;;;;;;4953776;28;20134;-77
2023/07/07 11:56:53;;;;;;;3.55;2.03;;;33.50;52.10;;;;;;4952187;28;20023;-77
2023/07/07 11:59:43;;;;;;;3.60;1.92;;;34.00;52.00;;;;;;4972702;28;20086;-78
2023/07/07 12:02:21;;;;;;;3.42;1.98;;;35.00;51.20;;;;;;4955224;28;20510;-77
2023/07/07 12:04:50;;;;;;;4.10;1.98;;;33.10;51.70;;;;;;4973126;28;20115;-77
2023/07/07 12:07:38;;;;;;;4.47;2.65;;;34.00;51.90;;;;;;4970412;28;20243;-78
2023/07/07 12:10:20;;;;;;;3.85;2.53;;;33.50;52.10;;;;;;4979054;28;20318;-77
2023/07/07 12:12:58;;;;;;;2.28;1.75;;;34.20;51.40;;;;;;4945636;29;20043;-77
2023/07/07 12:15:26;;;;;;;3.35;2.42;;;34.40;51.60;;;;;;4953895;29;20015;-78
2023/07/07 12:18:16;;;;;;;1.92;1.50;;;34.60;51.00;;;;;;4937095;29;20102;-77
2023/07/07 12:20:46;;;;;;;2.20;2.00;;;35.30;51.70;;;;;;4978472;28;20031;-77
2023/07/07 12:23:21;;;;;;;7.18;2.53;;;34.60;52.20;;;;;;4976557;28;20093;-77
2023/07/07 12:25:46;;;;;;;4.43;2.53;;;33.50;49.40;;;;;;4977870;28;20018;-77
2023/07/07 12:28:13;;;;;;;5.30;2.47;;;33.60;51.40;;;;;;4982077;28;20050;-77
2023/07/07 12:30:46;;;;;;;5.10;2.22;;;34.30;51.30;;;;;;4978300;28;20018;-78
2023/07/07 12:33:13;;;;;;;6.97;2.67;;;34.80;50.00;;;;;;4979472;28;20007;-77
2023/07/07 12:35:58;;;;;;;5.25;2.50;;;34.10;50.10;;;;;;4980898;28;20015;-77
2023/07/07 12:38:26;;;;;;;2.35;2.13;;;35.50;50.10;;;;;;4966555;28;20026;-77
2023/07/07 12:40:55;;;;;;;4.20;2.20;;;36.50;49.10;;;;;;4971983;28;20062;-78
2023/07/07 12:43:27;;;;;;;5.40;2.60;;;36.40;46.50;;;;;;4977591;28;20022;-77
2023/07/07 12:45:52;;;;;;;2.88;1.67;;;36.60;47.60;;;;;;4975115;28;20082;-77
2023/07/07 12:48:21;;;;;;;3.60;2.13;;;36.10;48.80;;;;;;4973759;28;20054;-77
2023/07/07 12:50:48;;;;;;;6.70;2.78;;;35.90;47.80;;;;;;4975478;28;20111;-77
2023/07/07 12:53:36;;;;;;;2.67;1.77;;;35.70;48.60;;;;;;4968515;28;20030;-77
2023/07/07 12:56:05;;;;;;;8.57;2.40;;;34.90;48.70;;;;;;4965163;28;20086;-77
2023/07/07 12:58:42;;;;;;;2.55;1.52;;;35.70;48.40;;;;;;4960148;28;20098;-77
2023/07/07 13:01:16;;;;;;;6.60;2.72;;;35.60;47.50;;;;;;4966856;28;20400;-77
2023/07/07 13:04:06;;;;;;;3.72;2.28;;;34.90;48.60;;;;;;4953023;29;20023;-77
2023/07/07 13:06:36;;;;;;;3.70;2.10;;;34.70;49.20;;;;;;4941152;28;20035;-77